| time (UTC) | temp F | wind direction | speed knots | gust knots | rain 1hr in | rain 24hr in | rain mn in | humidity % | barometer mb |
| 20260510190026 | 66 | 42 | 0.0 | 8.7 | 0.00 | 0.00 | 0.00 | 38 | 1007.4 |
| 20260510184523 | 66 | 35 | 0.0 | 6.1 | 0.00 | 0.00 | 0.00 | 38 | 1007.7 |
| 20260510183022 | 70 | 323 | 0.0 | 0.0 | 0.00 | 0.00 | 0.00 | 26 | 1007.8 |
| 20260510181529 | 71 | 221 | 0.9 | 10.4 | 0.00 | 0.00 | 0.00 | 25 | 1007.3 |
| 20260510180016 | 71 | 251 | 0.0 | 4.3 | 0.00 | 0.00 | 0.00 | 25 | 1007.2 |
| 20260510174515 | 71 | 263 | 1.7 | 6.1 | 0.00 | 0.00 | 0.00 | 25 | 1007.0 |
| 20260510173015 | 71 | 242 | 0.0 | 1.7 | 0.00 | 0.00 | 0.00 | 31 | 1007.0 |
| 20260510171510 | 72 | 40 | 0.9 | 4.3 | 0.00 | 0.00 | 0.00 | 27 | 1006.9 |
| 20260510170008 | 72 | 63 | 0.0 | 3.5 | 0.00 | 0.00 | 0.00 | 28 | 1006.9 |
| 20260510164512 | 71 | 360 | 0.9 | 7.8 | 0.00 | 0.00 | 0.00 | 29 | 1006.8 |
| 20260510163001 | 70 | 81 | 0.0 | 8.7 | 0.00 | 0.00 | 0.00 | 29 | 1006.4 |
| 20260510161556 | 69 | 65 | 0.9 | 9.6 | 0.00 | 0.00 | 0.00 | 29 | 1006.2 |
| 20260510160054 | 69 | 28 | 0.9 | 8.7 | 0.00 | 0.00 | 0.00 | 28 | 1006.2 |
| 20260510154557 | 69 | 24 | 0.9 | 9.6 | 0.00 | 0.00 | 0.00 | 28 | 1006.1 |
| 20260510153050 | 69 | 44 | 0.9 | 7.8 | 0.00 | 0.00 | 0.00 | 28 | 1005.9 |
| 20260510151553 | 68 | 98 | 0.9 | 7.0 | 0.00 | 0.00 | 0.00 | 28 | 1005.9 |
| 20260510150043 | 69 | 37 | 0.9 | 7.8 | 0.00 | 0.00 | 0.00 | 27 | 1005.9 |
| 20260510144547 | 68 | 69 | 0.9 | 7.0 | 0.00 | 0.00 | 0.00 | 26 | 1005.8 |
| 20260510143030 | 67 | 336 | 0.0 | 9.6 | 0.00 | 0.00 | 0.00 | 27 | 1005.7 |
| 20260510141526 | 64 | 351 | 0.0 | 0.9 | 0.00 | 0.00 | 0.00 | 29 | 1005.7 |
| 20260510140019 | 56 | 308 | 0.0 | 0.0 | 0.00 | 0.00 | 0.00 | 40 | 1005.8 |
| 20260510134516 | 49 | 309 | 0.0 | 0.0 | 0.00 | 0.00 | 0.00 | 56 | 1005.7 |
| 20260510133013 | 49 | 313 | 0.0 | 0.0 | 0.00 | 0.00 | 0.00 | 54 | 1005.5 |
| 20260510131525 | 46 | 315 | 0.0 | 0.0 | 0.00 | 0.00 | 0.00 | 60 | 1005.3 |
| 20260510130039 | 44 | 313 | 0.0 | 0.0 | 0.00 | 0.00 | 0.00 | 59 | 1005.2 |
| 20260510124538 | 42 | 313 | 0.0 | 0.0 | 0.00 | 0.00 | 0.00 | 61 | 1005.0 |
| 20260510123029 | 42 | 313 | 0.0 | 0.0 | 0.00 | 0.00 | 0.00 | 61 | 1004.8 |
| 20260510121530 | 42 | 313 | 0.0 | 0.0 | 0.00 | 0.00 | 0.00 | 60 | 1004.7 |
| 20260510120028 | 43 | 309 | 0.0 | 0.0 | 0.00 | 0.00 | 0.00 | 58 | 1004.5 |
| 20260510114520 | 44 | 309 | 0.0 | 0.0 | 0.00 | 0.00 | 0.00 | 55 | 1004.3 |
| 20260510113019 | 46 | 309 | 0.0 | 0.0 | 0.00 | 0.00 | 0.00 | 54 | 1004.1 |
| 20260510111512 | 46 | 311 | 0.0 | 0.0 | 0.00 | 0.00 | 0.00 | 52 | 1004.1 |
| 20260510110010 | 48 | 309 | 0.0 | 0.0 | 0.00 | 0.00 | 0.00 | 48 | 1004.2 |
| 20260510104511 | 48 | 309 | 0.0 | 0.0 | 0.00 | 0.00 | 0.00 | 47 | 1004.2 |
| 20260510103007 | 49 | 297 | 0.0 | 0.0 | 0.00 | 0.00 | 0.00 | 47 | 1004.1 |
| 20260510101506 | 48 | 302 | 0.0 | 0.0 | 0.00 | 0.00 | 0.00 | 47 | 1004.2 |
| 20260510100006 | 49 | 296 | 0.0 | 0.0 | 0.00 | 0.00 | 0.00 | 46 | 1003.7 |
| 20260510094507 | 48 | 298 | 0.0 | 0.0 | 0.00 | 0.00 | 0.00 | 47 | 1003.5 |
| 20260510093002 | 47 | 304 | 0.0 | 0.0 | 0.00 | 0.00 | 0.00 | 47 | 1003.5 |
| 20260510091501 | 47 | 317 | 0.0 | 0.0 | 0.00 | 0.00 | 0.00 | 47 | 1003.4 |
| 20260510090058 | 47 | 325 | 0.0 | 0.0 | 0.00 | 0.00 | 0.00 | 46 | 1003.4 |
| 20260510084600 | 48 | 334 | 0.0 | 0.0 | 0.00 | 0.00 | 0.00 | 45 | 1003.4 |
| 20260510083054 | 48 | 325 | 0.0 | 0.0 | 0.00 | 0.00 | 0.00 | 44 | 1003.4 |
| 20260510081552 | 48 | 318 | 0.0 | 0.0 | 0.00 | 0.00 | 0.00 | 44 | 1003.4 |
| 20260510074552 | 49 | 321 | 0.0 | 0.0 | 0.00 | 0.00 | 0.00 | 43 | 1003.6 |
| 20260510073106 | 48 | 317 | 0.0 | 0.0 | 0.00 | 0.00 | 0.00 | 45 | 1003.7 |
| 20260510071546 | 49 | 318 | 0.0 | 0.0 | 0.00 | 0.00 | 0.00 | 43 | 1003.8 |
| 20260510070048 | 48 | 315 | 0.0 | 0.0 | 0.00 | 0.00 | 0.00 | 44 | 1003.6 |
| 20260510064600 | 48 | 324 | 0.0 | 0.0 | 0.00 | 0.00 | 0.00 | 45 | 1003.8 |
| 20260510063039 | 48 | 325 | 0.0 | 0.0 | 0.00 | 0.00 | 0.00 | 44 | 1003.9 |
| 20260510061538 | 48 | 332 | 0.0 | 0.0 | 0.00 | 0.00 | 0.00 | 45 | 1003.9 |
| 20260510060037 | 48 | 322 | 0.0 | 0.0 | 0.00 | 0.00 | 0.00 | 44 | 1004.1 |
| 20260510054540 | 49 | 327 | 0.0 | 0.0 | 0.00 | 0.00 | 0.00 | 43 | 1004.1 |
| 20260510053041 | 49 | 319 | 0.0 | 0.0 | 0.00 | 0.00 | 0.00 | 42 | 1004.3 |
| 20260510051545 | 50 | 324 | 0.0 | 0.0 | 0.00 | 0.00 | 0.00 | 42 | 1004.4 |
| 20260510050029 | 51 | 319 | 0.0 | 0.0 | 0.00 | 0.00 | 0.00 | 41 | 1004.4 |
| 20260510044529 | 50 | 331 | 0.0 | 0.0 | 0.00 | 0.00 | 0.00 | 42 | 1004.6 |
| 20260510043026 | 50 | 328 | 0.0 | 0.0 | 0.00 | 0.00 | 0.00 | 42 | 1004.5 |
| 20260510041528 | 50 | 337 | 0.0 | 0.0 | 0.00 | 0.00 | 0.00 | 42 | 1004.4 |
| 20260510040028 | 51 | 319 | 0.0 | 0.0 | 0.00 | 0.00 | 0.00 | 42 | 1004.2 |
| 20260510034525 | 51 | 324 | 0.0 | 0.0 | 0.00 | 0.00 | 0.00 | 42 | 1004.3 |
| 20260510033023 | 51 | 321 | 0.0 | 0.0 | 0.00 | 0.00 | 0.00 | 42 | 1004.2 |
| 20260510031529 | 52 | 319 | 0.0 | 0.0 | 0.00 | 0.00 | 0.00 | 42 | 1004.0 |
| 20260510030021 | 52 | 200 | 0.0 | 0.0 | 0.00 | 0.00 | 0.00 | 42 | 1003.8 |
| 20260510024521 | 54 | 193 | 0.0 | 0.0 | 0.00 | 0.00 | 0.00 | 41 | 1003.5 |
| 20260510023019 | 56 | 191 | 0.0 | 0.0 | 0.00 | 0.00 | 0.00 | 39 | 1003.2 |
| 20260510021525 | 58 | 191 | 0.0 | 0.0 | 0.00 | 0.00 | 0.00 | 37 | 1003.0 |
| 20260510020025 | 61 | 191 | 0.0 | 0.0 | 0.00 | 0.00 | 0.00 | 33 | 1002.9 |
| 20260510014517 | 65 | 191 | 0.0 | 0.0 | 0.00 | 0.00 | 0.00 | 30 | 1002.8 |
| 20260510013017 | 70 | 198 | 0.0 | 0.0 | 0.00 | 0.00 | 0.00 | 24 | 1002.6 |
| 20260510011515 | 73 | 190 | 0.0 | 0.0 | 0.00 | 0.00 | 0.00 | 19 | 1002.6 |
| 20260510010014 | 74 | 223 | 0.0 | 0.0 | 0.00 | 0.00 | 0.00 | 17 | 1002.6 |
| 20260510004513 | 75 | 251 | 0.0 | 0.0 | 0.00 | 0.00 | 0.00 | 18 | 1002.5 |
| 20260510003013 | 75 | 197 | 0.0 | 0.0 | 0.00 | 0.00 | 0.00 | 17 | 1002.6 |
| 20260510001542 | 75 | 300 | 0.0 | 6.1 | 0.00 | 0.00 | 0.00 | 18 | 1002.5 |
| 20260510000041 | 75 | 222 | 0.0 | 3.5 | 0.00 | 0.00 | 0.00 | 17 | 1002.8 |
| 20260509234538 | 75 | 246 | 0.0 | 2.6 | 0.00 | 0.00 | 0.00 | 17 | 1002.9 |
| 20260509233035 | 76 | 294 | 0.9 | 7.8 | 0.00 | 0.00 | 0.00 | 16 | 1002.8 |
| 20260509231535 | 75 | 288 | 0.0 | 8.7 | 0.00 | 0.00 | 0.00 | 18 | 1002.8 |
| 20260509230032 | 75 | 240 | 1.7 | 7.8 | 0.00 | 0.00 | 0.00 | 18 | 1003.0 |
| 20260509224529 | 75 | 251 | 1.7 | 12.2 | 0.00 | 0.00 | 0.00 | 17 | 1003.2 |
| 20260509223027 | 76 | 259 | 0.0 | 5.2 | 0.00 | 0.00 | 0.00 | 17 | 1003.3 |
| 20260509221525 | 76 | 242 | 0.0 | 13.0 | 0.00 | 0.00 | 0.00 | 18 | 1003.4 |
| 20260509220035 | 76 | 308 | 0.0 | 3.5 | 0.00 | 0.00 | 0.00 | 16 | 1003.6 |
| 20260509214520 | 75 | 289 | 0.0 | 6.1 | 0.00 | 0.00 | 0.00 | 18 | 1004.0 |
| 20260509213019 | 75 | 200 | 0.0 | 11.3 | 0.00 | 0.00 | 0.00 | 16 | 1004.3 |
| 20260509211519 | 75 | 340 | 0.0 | 8.7 | 0.00 | 0.00 | 0.00 | 18 | 1004.4 |
| 20260509210014 | 74 | 221 | 0.9 | 7.8 | 0.00 | 0.00 | 0.00 | 16 | 1004.7 |
| 20260509204513 | 75 | 322 | 0.0 | 13.0 | 0.00 | 0.00 | 0.00 | 18 | 1005.0 |
| 20260509203022 | 75 | 294 | 0.9 | 9.6 | 0.00 | 0.00 | 0.00 | 18 | 1005.2 |
| 20260509201508 | 75 | 286 | 0.0 | 8.7 | 0.00 | 0.00 | 0.00 | 19 | 1005.2 |
| 20260509200006 | 74 | 240 | 1.7 | 7.0 | 0.00 | 0.00 | 0.00 | 17 | 1005.5 |
| 20260509194502 | 74 | 197 | 1.7 | 14.8 | 0.00 | 0.00 | 0.00 | 17 | 1005.6 |
| 20260509193002 | 74 | 186 | 0.0 | 8.7 | 0.00 | 0.00 | 0.00 | 19 | 1005.5 |
| 20260509191604 | 74 | 215 | 0.9 | 7.0 | 0.00 | 0.00 | 0.00 | 21 | 1005.7 |